Time;durP1;ratioP1;P1;durP2;ratioP2;P2;SDS_P1;SDS_P2;PMS_P1;PMS_P2;Temp;Humidity;BMP_temperature;BMP_pressure;BME280_temperature;BME280_humidity;BME280_pressure;Samples;Min_cycle;Max_cycle;Signal;HPM_P1;HPM_P2
2022/01/18 00:00:51;;;;;;;43.63;6.22;;;7.80;99.90;;;;;;5012567;28;20045;-51
2022/01/18 00:03:17;;;;;;;50.10;6.93;;;7.80;99.90;;;;;;4986779;28;20042;-51
2022/01/18 00:05:45;;;;;;;47.60;7.13;;;7.70;99.90;;;;;;4993398;28;20038;-50
2022/01/18 00:08:11;;;;;;;46.08;7.82;;;7.70;99.90;;;;;;5005511;28;20034;-52
2022/01/18 00:10:37;;;;;;;42.22;7.57;;;7.60;99.90;;;;;;4995459;23;20050;-55
2022/01/18 00:15:37;;;;;;;54.15;8.40;;;7.60;99.90;;;;;;4973612;28;20047;-54
2022/01/18 00:20:57;;;;;;;55.53;8.77;;;7.60;99.90;;;;;;4941024;28;20420;-54
2022/01/18 00:23:24;;;;;;;56.38;7.93;;;7.60;99.90;;;;;;4947355;29;20447;-54
2022/01/18 00:25:53;;;;;;;52.60;7.95;;;7.60;99.90;;;;;;4954278;28;20426;-54
2022/01/18 00:28:21;;;;;;;56.83;8.02;;;7.60;99.90;;;;;;4954409;28;20046;-53
2022/01/18 00:31:30;;;;;;;40.58;7.55;;;7.60;99.90;;;;;;4954321;28;20043;-54
2022/01/18 00:36:42;;;;;;;50.28;8.02;;;7.50;99.90;;;;;;4953921;28;20500;-54
2022/01/18 00:39:11;;;;;;;51.22;7.93;;;7.50;99.90;;;;;;4954165;28;20039;-55
2022/01/18 00:41:38;;;;;;;51.28;8.02;;;7.40;99.90;;;;;;4953955;28;20491;-54
2022/01/18 00:44:04;;;;;;;47.20;8.20;;;7.40;99.90;;;;;;4953690;28;20143;-53
2022/01/18 00:46:31;;;;;;;54.38;7.95;;;7.40;99.90;;;;;;4953917;28;20044;-55
2022/01/18 00:49:00;;;;;;;49.03;8.20;;;7.40;99.90;;;;;;4953542;28;20054;-53
2022/01/18 00:51:28;;;;;;;43.42;8.32;;;7.30;99.90;;;;;;4954821;28;20384;-55
2022/01/18 00:53:56;;;;;;;44.42;7.47;;;7.30;99.90;;;;;;4963914;28;20499;-51
2022/01/18 00:56:25;;;;;;;38.30;7.55;;;7.30;99.90;;;;;;4952784;29;20059;-54
2022/01/18 00:58:52;;;;;;;40.83;7.35;;;7.20;99.90;;;;;;4953636;28;20035;-52
2022/01/18 01:01:20;;;;;;;43.60;8.40;;;7.20;99.90;;;;;;4953179;29;20135;-53
2022/01/18 01:03:47;;;;;;;41.25;7.18;;;7.10;99.90;;;;;;4953869;28;20043;-54
2022/01/18 01:06:12;;;;;;;43.45;7.22;;;7.10;99.90;;;;;;4954004;28;20047;-52
2022/01/18 01:08:38;;;;;;;48.15;7.07;;;7.00;99.90;;;;;;4953499;28;20487;-52
2022/01/18 01:11:05;;;;;;;37.17;7.50;;;7.00;99.90;;;;;;4953318;29;20067;-54
2022/01/18 01:13:33;;;;;;;50.08;6.75;;;7.00;99.90;;;;;;4953377;28;20094;-55
2022/01/18 01:34:54;;;;;;;44.17;7.18;;;6.80;99.90;;;;;;4958284;29;20043;-53
2022/01/18 01:45:06;;;;;;;34.83;7.70;;;6.80;99.90;;;;;;4971510;28;20039;-53
2022/01/18 01:47:37;;;;;;;54.33;8.05;;;6.80;99.90;;;;;;4959745;28;20115;-51
2022/01/18 01:50:16;;;;;;;35.33;6.55;;;6.80;99.90;;;;;;4958136;28;20067;-52
2022/01/18 01:52:41;;;;;;;54.03;8.77;;;6.70;99.90;;;;;;4950677;29;20043;-54
2022/01/18 01:55:08;;;;;;;51.58;7.55;;;6.80;99.90;;;;;;4959477;28;20499;-51
2022/01/18 01:57:34;;;;;;;45.13;7.70;;;6.80;99.90;;;;;;4959101;28;20057;-52
2022/01/18 02:00:05;;;;;;;35.80;6.97;;;6.80;99.90;;;;;;4969929;28;20047;-52
2022/01/18 02:02:30;;;;;;;43.60;6.88;;;6.80;99.90;;;;;;4953170;28;20051;-51
2022/01/18 02:04:56;;;;;;;46.55;7.70;;;6.80;99.90;;;;;;4959493;28;20035;-51
2022/01/18 02:07:21;;;;;;;49.80;7.97;;;6.80;99.90;;;;;;4959542;28;20574;-51
2022/01/18 02:09:47;;;;;;;50.72;9.02;;;6.80;99.90;;;;;;4959344;28;20070;-51
2022/01/18 02:12:12;;;;;;;35.55;6.45;;;6.80;99.90;;;;;;4963836;28;20037;-52
2022/01/18 02:14:40;;;;;;;42.28;7.43;;;6.70;99.90;;;;;;4969809;28;20045;-53
2022/01/18 02:22:34;;;;;;;46.58;7.32;;;6.70;99.90;;;;;;4974943;28;20485;-53
2022/01/18 02:25:00;;;;;;;45.00;7.90;;;6.60;99.90;;;;;;4962005;28;20126;-52
2022/01/18 02:27:25;;;;;;;36.25;7.15;;;6.70;99.90;;;;;;4959118;28;20409;-53
2022/01/18 02:29:51;;;;;;;38.95;6.95;;;6.70;99.90;;;;;;4959273;28;20035;-52
2022/01/18 02:32:16;;;;;;;43.70;6.82;;;6.70;99.90;;;;;;4972984;28;20031;-53
2022/01/18 02:34:42;;;;;;;44.35;7.28;;;6.70;99.90;;;;;;4958861;28;20039;-51
2022/01/18 02:37:10;;;;;;;45.50;7.20;;;6.70;99.90;;;;;;4959277;28;20119;-52
2022/01/18 02:39:36;;;;;;;45.90;6.45;;;6.70;99.90;;;;;;4958122;28;20411;-55
2022/01/18 02:42:07;;;;;;;44.90;9.30;;;6.60;99.90;;;;;;4956762;28;20521;-52
2022/01/18 02:44:34;;;;;;;39.75;6.55;;;6.60;99.90;;;;;;4957179;28;20039;-52
2022/01/18 02:47:02;;;;;;;35.65;6.57;;;6.60;99.90;;;;;;4956109;28;20456;-53
2022/01/18 02:49:28;;;;;;;46.33;6.80;;;6.60;99.90;;;;;;4952055;28;20039;-52
2022/01/18 02:51:55;;;;;;;50.13;6.82;;;6.60;99.90;;;;;;4955480;28;20043;-52
2022/01/18 02:54:21;;;;;;;37.72;6.72;;;6.60;99.90;;;;;;4955976;28;20047;-51
2022/01/18 02:56:51;;;;;;;40.17;7.13;;;6.60;99.90;;;;;;4956106;28;20039;-52
2022/01/18 02:59:32;;;;;;;34.42;6.55;;;6.60;99.90;;;;;;4955525;28;20070;-53
2022/01/18 03:04:44;;;;;;;37.03;7.47;;;6.70;99.90;;;;;;4955821;29;20066;-52
2022/01/18 03:07:11;;;;;;;32.15;6.63;;;6.60;99.90;;;;;;4955718;28;20487;-51
2022/01/18 03:09:37;;;;;;;42.88;7.50;;;6.60;99.90;;;;;;4955326;28;20046;-51
2022/01/18 03:12:04;;;;;;;35.30;5.90;;;6.60;99.90;;;;;;4955417;28;20086;-52
2022/01/18 03:14:30;;;;;;;44.95;8.07;;;6.60;99.90;;;;;;4955393;28;20058;-52
2022/01/18 03:16:55;;;;;;;39.00;7.05;;;6.50;99.90;;;;;;4955276;28;20035;-52
2022/01/18 03:19:21;;;;;;;35.05;7.50;;;6.60;99.90;;;;;;4955729;28;20407;-52
2022/01/18 03:21:47;;;;;;;43.38;8.35;;;6.60;99.90;;;;;;4955572;29;20039;-51
2022/01/18 03:29:34;;;;;;;36.20;7.60;;;6.60;99.90;;;;;;4959709;28;20085;-52
2022/01/18 03:32:00;;;;;;;36.72;7.90;;;6.60;99.90;;;;;;4955378;29;20468;-55
2022/01/18 03:34:26;;;;;;;36.22;7.57;;;6.60;99.90;;;;;;4955372;29;20043;-54
2022/01/18 03:36:52;;;;;;;35.15;7.53;;;6.60;99.90;;;;;;4954957;29;20476;-52
2022/01/18 03:39:19;;;;;;;31.83;6.90;;;6.60;99.90;;;;;;4955384;28;20480;-54
2022/01/18 03:41:51;;;;;;;32.03;6.88;;;6.60;99.90;;;;;;4954966;28;20114;-52
2022/01/18 03:44:18;;;;;;;34.47;7.28;;;6.60;99.90;;;;;;4954841;28;20051;-51
2022/01/18 03:46:44;;;;;;;38.47;7.78;;;6.60;99.90;;;;;;4955127;28;20105;-53
2022/01/18 03:49:09;;;;;;;32.78;7.03;;;6.60;99.90;;;;;;4954728;28;20043;-51
2022/01/18 03:51:35;;;;;;;26.35;7.10;;;6.60;99.90;;;;;;4954661;28;20492;-51
2022/01/18 03:54:00;;;;;;;34.95;7.25;;;6.60;99.90;;;;;;4954694;29;20043;-53
2022/01/18 03:56:27;;;;;;;29.67;7.05;;;6.60;99.90;;;;;;4953690;28;20051;-54
2022/01/18 03:58:53;;;;;;;38.17;7.45;;;6.60;99.90;;;;;;4954969;28;20051;-55
2022/01/18 04:01:19;;;;;;;34.10;6.78;;;6.60;99.90;;;;;;4954720;28;20466;-51
2022/01/18 04:03:45;;;;;;;35.30;7.32;;;6.60;99.90;;;;;;4971826;28;20093;-53
2022/01/18 04:06:10;;;;;;;28.08;6.97;;;6.60;99.90;;;;;;4974055;28;20038;-53
2022/01/18 04:08:36;;;;;;;37.83;7.47;;;6.50;99.90;;;;;;4974279;28;20087;-54
2022/01/18 04:11:01;;;;;;;32.00;7.72;;;6.50;99.90;;;;;;4960665;28;20098;-54
2022/01/18 04:13:27;;;;;;;30.75;7.30;;;6.60;99.90;;;;;;4954550;28;20046;-54
2022/01/18 04:15:52;;;;;;;38.42;7.80;;;6.60;99.90;;;;;;4965203;28;20439;-53
2022/01/18 04:18:29;;;;;;;29.30;7.00;;;6.60;99.90;;;;;;4973800;28;20133;-52
2022/01/18 04:28:53;;;;;;;30.05;8.00;;;6.50;99.90;;;;;;4954218;28;20083;-52
2022/01/18 04:31:19;;;;;;;30.83;7.30;;;6.60;99.90;;;;;;4970587;28;20470;-51
2022/01/18 04:33:45;;;;;;;30.13;6.78;;;6.50;99.90;;;;;;4973277;28;20078;-52
2022/01/18 04:36:11;;;;;;;32.17;7.53;;;6.50;99.90;;;;;;4972812;28;20138;-52
2022/01/18 04:38:38;;;;;;;33.28;7.68;;;6.60;99.90;;;;;;4954162;28;20047;-52
2022/01/18 04:41:06;;;;;;;46.55;8.88;;;6.60;99.90;;;;;;4953956;28;20118;-52
2022/01/18 04:43:49;;;;;;;29.73;7.10;;;6.60;99.90;;;;;;4953736;28;20156;-51
2022/01/18 04:48:59;;;;;;;33.22;7.60;;;6.60;99.90;;;;;;4954003;29;20358;-52
2022/01/18 04:51:25;;;;;;;37.83;7.75;;;6.60;99.90;;;;;;4953984;28;20094;-52
2022/01/18 04:53:55;;;;;;;31.08;7.68;;;6.60;99.90;;;;;;4953695;29;20102;-53
2022/01/18 04:59:15;;;;;;;38.97;8.68;;;6.60;99.90;;;;;;4923236;29;20496;-52
2022/01/18 05:01:42;;;;;;;34.97;7.85;;;6.60;99.90;;;;;;4953875;28;20047;-52
2022/01/18 05:04:09;;;;;;;30.88;8.57;;;6.60;99.90;;;;;;4952739;28;20551;-53
2022/01/18 05:06:35;;;;;;;47.60;8.50;;;6.60;99.90;;;;;;4953681;28;20043;-52
2022/01/18 05:09:07;;;;;;;33.40;8.23;;;6.60;99.90;;;;;;4953353;28;20114;-54
2022/01/18 05:11:37;;;;;;;36.72;7.53;;;6.60;99.90;;;;;;4953678;28;20043;-52
2022/01/18 05:14:19;;;;;;;27.33;8.32;;;6.60;99.90;;;;;;4953334;28;20051;-54
2022/01/18 05:16:56;;;;;;;33.72;7.68;;;6.50;99.90;;;;;;4953805;28;20123;-54
2022/01/18 05:24:22;;;;;;;31.10;8.82;;;6.50;99.90;;;;;;4953192;28;20563;-51
2022/01/18 05:26:48;;;;;;;41.92;9.90;;;6.50;99.90;;;;;;4963219;28;20089;-54
2022/01/18 05:29:14;;;;;;;34.60;9.73;;;6.40;99.90;;;;;;4953655;28;20091;-51
2022/01/18 05:31:40;;;;;;;32.75;7.75;;;6.40;99.90;;;;;;4953408;28;20047;-52
2022/01/18 05:34:05;;;;;;;30.67;8.02;;;6.40;99.90;;;;;;4953204;28;20051;-51
2022/01/18 05:36:31;;;;;;;36.75;8.93;;;6.40;99.90;;;;;;4952883;28;20039;-52
2022/01/18 05:38:57;;;;;;;26.70;8.80;;;6.40;99.90;;;;;;4953367;29;20058;-52
2022/01/18 05:41:22;;;;;;;40.17;9.38;;;6.40;99.90;;;;;;4953279;28;20039;-52
2022/01/18 05:43:48;;;;;;;35.65;8.38;;;6.40;99.90;;;;;;4953072;28;20035;-54
2022/01/18 05:46:14;;;;;;;27.17;6.68;;;6.30;99.90;;;;;;4953300;29;20479;-52
2022/01/18 05:48:39;;;;;;;24.27;6.88;;;6.30;99.90;;;;;;4953181;29;20046;-52
2022/01/18 05:51:05;;;;;;;28.60;6.97;;;6.30;99.90;;;;;;4952936;29;20039;-54
2022/01/18 05:53:33;;;;;;;28.90;6.95;;;6.30;99.90;;;;;;4951177;28;20061;-51
2022/01/18 05:55:59;;;;;;;27.60;6.93;;;6.30;99.90;;;;;;4961026;28;20044;-51
2022/01/18 05:58:25;;;;;;;28.60;7.50;;;6.30;99.90;;;;;;4953030;29;20507;-52
2022/01/18 06:00:53;;;;;;;24.92;6.55;;;6.30;99.90;;;;;;4953427;28;20062;-52
2022/01/18 06:03:27;;;;;;;29.50;7.13;;;6.30;99.90;;;;;;4951549;29;20122;-54
2022/01/18 06:08:56;;;;;;;15.68;4.85;;;6.20;99.90;;;;;;4874846;29;20514;-51
2022/01/18 06:11:21;;;;;;;17.20;5.88;;;6.20;99.90;;;;;;4930442;29;20051;-51
2022/01/18 06:13:47;;;;;;;22.05;5.63;;;6.10;99.90;;;;;;4951638;29;20130;-53
2022/01/18 06:16:12;;;;;;;19.15;5.05;;;6.20;99.90;;;;;;4956489;28;20127;-52
2022/01/18 06:18:38;;;;;;;20.17;5.95;;;6.10;99.90;;;;;;4974482;28;20082;-52
2022/01/18 06:21:03;;;;;;;20.38;6.22;;;6.10;99.90;;;;;;4975943;28;20042;-52
2022/01/18 06:23:29;;;;;;;28.30;6.18;;;6.10;99.90;;;;;;4975655;28;20491;-53
2022/01/18 06:25:55;;;;;;;27.40;6.38;;;6.10;99.90;;;;;;4959411;28;20126;-54
2022/01/18 06:28:21;;;;;;;16.83;5.90;;;6.10;99.90;;;;;;4956315;28;20043;-52
2022/01/18 06:30:46;;;;;;;21.58;6.40;;;6.10;99.90;;;;;;4955992;29;20039;-52
2022/01/18 06:33:12;;;;;;;21.20;5.97;;;6.10;99.90;;;;;;4956530;28;20098;-54
2022/01/18 06:35:37;;;;;;;14.80;6.30;;;6.10;99.90;;;;;;4956024;29;20047;-51
2022/01/18 06:38:03;;;;;;;25.35;6.28;;;6.10;99.90;;;;;;4956058;28;20114;-53
2022/01/18 06:40:29;;;;;;;19.27;5.78;;;6.10;99.90;;;;;;4956207;28;20392;-52
2022/01/18 06:42:54;;;;;;;18.85;5.60;;;6.00;99.90;;;;;;4955726;28;20043;-52
2022/01/18 06:45:20;;;;;;;20.60;6.00;;;6.00;99.90;;;;;;4955751;28;20532;-53
2022/01/18 06:47:45;;;;;;;25.23;5.80;;;6.10;99.90;;;;;;4957230;28;20562;-52
2022/01/18 06:50:11;;;;;;;21.80;5.95;;;6.00;99.90;;;;;;4951490;28;20034;-51
2022/01/18 06:52:40;;;;;;;22.17;5.53;;;6.10;99.90;;;;;;4956062;28;20039;-54
2022/01/18 06:55:07;;;;;;;19.42;6.13;;;6.10;99.90;;;;;;4948033;28;20074;-51
2022/01/18 06:57:33;;;;;;;19.80;6.13;;;6.00;99.90;;;;;;4951549;28;20051;-51
2022/01/18 06:59:58;;;;;;;18.52;5.35;;;6.10;99.90;;;;;;4953076;28;20051;-51
2022/01/18 07:02:24;;;;;;;19.65;6.30;;;6.00;99.90;;;;;;4955726;28;20047;-51
2022/01/18 07:04:49;;;;;;;15.40;5.28;;;6.00;99.90;;;;;;4955922;29;20075;-52
2022/01/18 07:07:16;;;;;;;15.35;4.93;;;6.00;99.90;;;;;;4952868;28;20039;-52
2022/01/18 07:09:43;;;;;;;18.55;4.80;;;6.00;99.90;;;;;;4949465;28;20035;-54
2022/01/18 07:12:11;;;;;;;19.90;5.45;;;6.00;99.90;;;;;;4952724;28;20289;-52
2022/01/18 07:14:37;;;;;;;13.32;4.95;;;6.00;99.90;;;;;;4952365;28;20039;-52
2022/01/18 07:17:03;;;;;;;21.00;5.50;;;6.00;99.90;;;;;;4950908;28;20050;-54
2022/01/18 07:19:31;;;;;;;23.02;5.50;;;6.00;99.90;;;;;;4946740;28;20050;-53
2022/01/18 07:21:56;;;;;;;18.45;5.40;;;6.00;99.90;;;;;;4939376;28;20039;-55
2022/01/18 07:24:37;;;;;;;21.70;6.13;;;6.00;99.90;;;;;;4941184;28;20031;-55
2022/01/18 07:27:04;;;;;;;15.70;5.38;;;6.10;99.90;;;;;;4937971;28;20054;-55
2022/01/18 07:29:30;;;;;;;18.55;6.32;;;6.10;99.90;;;;;;4939570;28;20035;-55
2022/01/18 07:31:55;;;;;;;23.02;6.50;;;6.10;99.90;;;;;;4945189;28;20040;-55
2022/01/18 07:34:21;;;;;;;21.33;6.28;;;6.10;99.90;;;;;;4941257;28;20048;-55
2022/01/18 07:36:46;;;;;;;21.70;7.15;;;6.10;99.90;;;;;;4945843;28;20032;-55
2022/01/18 07:39:12;;;;;;;19.23;6.97;;;6.20;99.90;;;;;;4945874;28;20085;-55
2022/01/18 07:41:38;;;;;;;21.70;7.18;;;6.20;99.90;;;;;;4941438;28;20040;-53
2022/01/18 07:44:03;;;;;;;29.67;7.78;;;6.20;99.90;;;;;;4935782;28;20039;-55
2022/01/18 07:46:29;;;;;;;25.58;7.60;;;6.20;99.90;;;;;;4943440;28;20518;-55
2022/01/18 07:48:54;;;;;;;25.02;7.43;;;6.20;99.90;;;;;;4935293;28;20055;-55
2022/01/18 07:51:20;;;;;;;24.52;7.00;;;6.20;99.90;;;;;;4942611;28;20035;-55
2022/01/18 07:53:46;;;;;;;30.02;7.60;;;6.30;99.90;;;;;;4944640;28;20043;-55
2022/01/18 07:56:11;;;;;;;23.08;7.82;;;6.20;99.90;;;;;;4943251;28;20035;-54
2022/01/18 07:58:37;;;;;;;28.00;8.32;;;6.20;99.90;;;;;;4947815;28;20042;-54
2022/01/18 08:01:03;;;;;;;28.17;7.50;;;6.20;99.90;;;;;;4938579;28;20059;-53
2022/01/18 08:03:29;;;;;;;31.23;8.43;;;6.30;99.90;;;;;;4947269;28;20038;-55
2022/01/18 08:05:55;;;;;;;30.02;8.23;;;6.30;99.90;;;;;;4944550;28;20039;-55
2022/01/18 08:08:22;;;;;;;32.10;9.43;;;6.30;99.90;;;;;;4943509;28;20114;-54
2022/01/18 08:10:47;;;;;;;26.67;7.95;;;6.30;99.90;;;;;;4943981;28;20114;-54
2022/01/18 08:13:13;;;;;;;27.38;9.15;;;6.30;99.90;;;;;;4942880;28;20123;-54
2022/01/18 08:15:40;;;;;;;28.23;8.70;;;6.30;99.90;;;;;;4937544;28;20499;-54
2022/01/18 08:18:08;;;;;;;26.23;8.80;;;6.30;99.90;;;;;;4949215;28;20048;-55
2022/01/18 08:20:34;;;;;;;28.52;8.18;;;6.30;99.90;;;;;;4937850;28;20448;-55
2022/01/18 08:23:00;;;;;;;29.65;9.32;;;6.30;99.90;;;;;;4941405;28;20122;-55
2022/01/18 08:25:25;;;;;;;31.55;9.60;;;6.20;99.90;;;;;;4938264;28;20043;-54
2022/01/18 08:27:51;;;;;;;37.03;9.13;;;6.30;99.90;;;;;;4940069;28;20035;-55
2022/01/18 08:30:18;;;;;;;33.33;10.88;;;6.30;99.90;;;;;;4941242;28;20400;-55
2022/01/18 08:32:44;;;;;;;29.90;10.02;;;6.20;99.90;;;;;;4942742;28;20106;-55
2022/01/18 08:35:11;;;;;;;34.42;10.00;;;6.30;99.90;;;;;;4941692;28;20110;-55
2022/01/18 08:37:37;;;;;;;31.13;11.15;;;6.30;99.90;;;;;;4944923;28;20043;-55
2022/01/18 08:40:03;;;;;;;33.33;10.52;;;6.30;99.90;;;;;;4943220;28;20093;-55
2022/01/18 08:42:29;;;;;;;32.45;10.90;;;6.30;99.90;;;;;;4948564;28;20047;-55
2022/01/18 08:44:55;;;;;;;26.90;10.70;;;6.20;99.90;;;;;;4947212;28;20451;-55
2022/01/18 08:47:21;;;;;;;30.52;11.35;;;6.30;99.90;;;;;;4941419;28;20436;-54
2022/01/18 08:49:47;;;;;;;27.80;10.95;;;6.30;99.90;;;;;;4943076;28;20520;-55
2022/01/18 08:52:13;;;;;;;32.33;11.65;;;6.30;99.90;;;;;;4944919;28;20039;-53
2022/01/18 08:54:40;;;;;;;33.72;11.25;;;6.30;99.90;;;;;;4941852;28;20043;-55
2022/01/18 08:57:05;;;;;;;31.95;10.80;;;6.30;99.90;;;;;;4947540;28;20031;-55
2022/01/18 08:59:35;;;;;;;30.70;10.20;;;6.20;99.90;;;;;;4945421;28;20381;-54
2022/01/18 09:02:02;;;;;;;21.80;9.55;;;6.30;99.90;;;;;;4953651;28;20043;-54
2022/01/18 09:04:27;;;;;;;23.25;9.35;;;6.30;99.90;;;;;;4949669;28;20043;-54
2022/01/18 09:06:53;;;;;;;21.73;8.73;;;6.30;99.90;;;;;;4948000;28;20040;-55
2022/01/18 09:09:19;;;;;;;17.23;7.43;;;6.30;99.90;;;;;;4953440;28;20043;-54
2022/01/18 09:11:45;;;;;;;17.95;8.23;;;6.40;99.90;;;;;;4953688;28;20047;-53
2022/01/18 09:14:15;;;;;;;16.45;7.30;;;6.40;99.90;;;;;;4953512;28;20039;-54
2022/01/18 09:16:41;;;;;;;20.95;7.53;;;6.30;99.90;;;;;;4947158;29;20051;-54
2022/01/18 09:19:07;;;;;;;21.27;7.78;;;6.40;99.90;;;;;;4948823;28;20697;-53
2022/01/18 09:21:33;;;;;;;19.42;7.82;;;6.40;99.90;;;;;;4945393;28;20043;-54
2022/01/18 09:24:00;;;;;;;23.23;7.50;;;6.30;99.90;;;;;;4954351;28;20085;-55
2022/01/18 09:26:26;;;;;;;23.13;6.97;;;6.30;99.90;;;;;;4967303;28;20039;-54
2022/01/18 09:28:51;;;;;;;20.63;7.80;;;6.30;99.90;;;;;;4957592;28;20038;-52
2022/01/18 09:31:17;;;;;;;22.75;7.10;;;6.30;99.90;;;;;;4956867;28;20138;-54
2022/01/18 09:33:43;;;;;;;20.02;6.85;;;6.30;99.90;;;;;;4960944;28;20039;-55
2022/01/18 09:36:08;;;;;;;25.15;7.80;;;6.40;99.90;;;;;;4944327;28;20416;-53
2022/01/18 09:38:34;;;;;;;17.73;7.95;;;6.40;99.90;;;;;;4953143;29;20051;-53
2022/01/18 09:41:08;;;;;;;20.50;7.30;;;6.40;99.90;;;;;;4957115;28;20125;-54
2022/01/18 09:43:34;;;;;;;20.33;6.45;;;6.50;99.90;;;;;;4955150;28;20046;-52
2022/01/18 09:46:00;;;;;;;18.23;5.32;;;6.50;99.90;;;;;;4952989;28;20066;-55
2022/01/18 09:48:25;;;;;;;17.15;6.68;;;6.40;99.90;;;;;;4953038;29;20074;-55
2022/01/18 09:50:51;;;;;;;16.52;5.85;;;6.50;99.90;;;;;;4956965;28;20555;-55
2022/01/18 09:53:17;;;;;;;16.65;5.63;;;6.50;99.90;;;;;;4956542;28;20126;-55
2022/01/18 09:55:42;;;;;;;16.45;5.47;;;6.50;99.90;;;;;;4957178;28;20126;-52
2022/01/18 09:58:09;;;;;;;18.15;4.72;;;6.60;99.90;;;;;;4962114;28;20073;-54
2022/01/18 10:00:38;;;;;;;14.32;4.55;;;6.60;99.90;;;;;;4965375;28;20051;-52
2022/01/18 10:03:08;;;;;;;12.15;4.75;;;6.60;99.90;;;;;;4956444;29;20056;-55
2022/01/18 10:05:34;;;;;;;12.10;4.70;;;6.60;99.90;;;;;;4956830;28;20043;-53
2022/01/18 10:08:10;;;;;;;14.50;4.65;;;6.70;99.90;;;;;;4959645;28;20407;-53
2022/01/18 10:10:53;;;;;;;13.32;4.50;;;6.70;99.90;;;;;;4962867;28;20512;-55
2022/01/18 10:13:27;;;;;;;18.08;5.38;;;6.70;99.90;;;;;;4958884;28;20038;-54
2022/01/18 10:16:21;;;;;;;15.50;4.60;;;6.80;99.90;;;;;;4964450;28;20042;-52
2022/01/18 10:19:01;;;;;;;12.20;4.03;;;6.80;99.90;;;;;;4947407;29;20074;-53
2022/01/18 10:21:28;;;;;;;17.80;4.57;;;6.90;99.90;;;;;;4956528;28;20488;-54
2022/01/18 10:24:11;;;;;;;15.90;4.78;;;6.90;99.90;;;;;;4951741;28;20043;-55
2022/01/18 10:26:41;;;;;;;12.52;3.90;;;7.00;99.90;;;;;;4958557;28;20057;-55
2022/01/18 10:29:07;;;;;;;10.90;3.78;;;7.00;99.90;;;;;;4957429;28;20074;-54
2022/01/18 10:31:40;;;;;;;14.90;3.45;;;7.10;99.90;;;;;;4955867;28;20074;-55
2022/01/18 10:37:25;;;;;;;15.98;3.50;;;7.10;99.90;;;;;;4933736;28;20051;-53
2022/01/18 10:39:55;;;;;;;9.52;2.65;;;7.10;99.90;;;;;;4956349;28;20492;-53
2022/01/18 10:42:30;;;;;;;8.05;2.00;;;7.10;99.90;;;;;;4960640;28;20050;-55
2022/01/18 10:45:05;;;;;;;11.00;2.30;;;7.10;99.90;;;;;;4962823;28;20542;-52
2022/01/18 10:47:31;;;;;;;11.63;2.45;;;7.10;99.90;;;;;;4960285;28;20488;-55
2022/01/18 10:50:05;;;;;;;8.60;2.40;;;7.10;99.90;;;;;;4966733;28;20047;-53
2022/01/18 10:52:30;;;;;;;9.77;2.28;;;7.10;99.90;;;;;;4963613;28;20039;-53
2022/01/18 10:54:59;;;;;;;9.65;2.47;;;7.10;99.90;;;;;;4965594;28;20043;-53
2022/01/18 10:57:32;;;;;;;10.43;2.55;;;7.10;99.90;;;;;;4947201;28;20031;-55
2022/01/18 11:00:04;;;;;;;8.13;2.08;;;7.20;99.90;;;;;;4947068;28;20032;-55
2022/01/18 11:02:36;;;;;;;;;;;7.10;99.90;;;;;;4945028;28;20386;-55
2022/01/18 11:05:19;;;;;;;7.03;2.08;;;7.10;99.90;;;;;;4939429;28;20319;-54
2022/01/18 11:07:46;;;;;;;6.85;2.10;;;7.10;99.90;;;;;;4944791;28;20095;-55
2022/01/18 11:10:13;;;;;;;8.75;2.00;;;7.10;99.90;;;;;;4937513;28;20560;-55
2022/01/18 11:12:51;;;;;;;8.85;2.50;;;7.10;99.90;;;;;;4939470;28;20031;-55
2022/01/18 11:15:20;;;;;;;7.95;2.08;;;7.10;99.90;;;;;;4947573;28;20496;-55
2022/01/18 11:17:51;;;;;;;8.05;2.20;;;7.10;99.90;;;;;;4944053;28;20107;-54
2022/01/18 11:20:19;;;;;;;7.93;2.30;;;7.10;99.90;;;;;;4944776;28;20412;-54
2022/01/18 11:22:47;;;;;;;11.10;2.67;;;7.10;99.90;;;;;;4945174;28;20042;-55
2022/01/18 11:25:12;;;;;;;8.60;2.38;;;7.20;99.90;;;;;;4946065;29;20043;-55
2022/01/18 11:27:42;;;;;;;9.65;2.65;;;7.20;99.90;;;;;;4944577;29;20515;-55
2022/01/18 11:30:08;;;;;;;11.10;2.63;;;7.20;99.90;;;;;;4940099;29;20067;-55
2022/01/18 11:32:35;;;;;;;9.55;2.78;;;7.20;99.90;;;;;;4940699;28;20050;-55
2022/01/18 11:35:24;;;;;;;9.15;2.88;;;7.20;99.90;;;;;;4939373;28;20043;-55
2022/01/18 11:38:40;;;;;;;17.17;3.30;;;7.20;99.90;;;;;;4942644;28;20042;-53
2022/01/18 11:41:06;;;;;;;10.77;2.88;;;7.20;99.90;;;;;;4946003;28;20070;-55
2022/01/18 11:43:40;;;;;;;11.23;3.25;;;7.20;99.90;;;;;;4955207;28;20046;-55
2022/01/18 11:46:25;;;;;;;11.82;3.13;;;7.20;99.90;;;;;;4953118;28;20054;-53
2022/01/18 11:49:03;;;;;;;9.05;2.95;;;7.10;99.90;;;;;;4960458;28;20123;-52
2022/01/18 11:51:36;;;;;;;13.25;2.75;;;7.10;99.90;;;;;;4968717;28;20034;-55
2022/01/18 11:57:18;;;;;;;9.23;2.97;;;7.00;99.90;;;;;;4959042;28;20051;-55
2022/01/18 11:59:44;;;;;;;11.93;2.90;;;7.00;99.90;;;;;;4961417;28;20039;-54
2022/01/18 12:02:10;;;;;;;13.48;3.60;;;7.00;99.90;;;;;;4960289;28;20043;-55
2022/01/18 12:07:31;;;;;;;12.10;3.55;;;7.10;99.90;;;;;;4960672;28;20074;-54
2022/01/18 12:09:57;;;;;;;17.67;5.20;;;7.00;99.90;;;;;;4973084;28;20411;-55
2022/01/18 12:12:41;;;;;;;11.75;4.85;;;7.00;99.90;;;;;;4965971;28;20047;-51
2022/01/18 12:15:15;;;;;;;11.30;4.63;;;6.90;99.90;;;;;;4956837;28;20417;-51
2022/01/18 12:17:57;;;;;;;14.40;5.03;;;6.90;99.90;;;;;;4968381;28;20089;-50
2022/01/18 12:20:32;;;;;;;14.45;5.70;;;6.90;99.90;;;;;;4940343;28;20039;-52
2022/01/18 12:23:14;;;;;;;16.73;5.72;;;6.80;99.90;;;;;;4960823;28;20162;-52
2022/01/18 12:25:55;;;;;;;21.73;6.57;;;6.90;99.90;;;;;;4955029;28;20102;-53
2022/01/18 12:31:53;;;;;;;18.50;6.00;;;6.90;99.90;;;;;;4965039;28;20040;-53
2022/01/18 12:34:28;;;;;;;16.92;6.32;;;6.90;99.90;;;;;;4958662;28;20127;-52
2022/01/18 12:36:56;;;;;;;16.70;6.20;;;6.90;99.90;;;;;;4955567;28;20056;-52
2022/01/18 12:39:23;;;;;;;17.65;5.95;;;6.90;99.90;;;;;;4953908;28;20106;-54
2022/01/18 12:41:56;;;;;;;19.88;6.70;;;6.90;99.90;;;;;;4964981;28;20197;-52
2022/01/18 12:44:22;;;;;;;17.65;6.13;;;6.90;99.90;;;;;;4962227;28;20068;-52
2022/01/18 12:46:52;;;;;;;19.17;6.00;;;6.90;99.90;;;;;;4952757;29;20047;-52
2022/01/18 12:49:19;;;;;;;13.32;5.85;;;6.90;99.90;;;;;;4955085;28;20036;-52
2022/01/18 12:51:45;;;;;;;15.63;5.85;;;6.90;99.90;;;;;;4961692;28;20035;-52
2022/01/18 12:54:10;;;;;;;16.05;5.55;;;6.90;99.90;;;;;;4952402;29;20050;-53
2022/01/18 12:56:36;;;;;;;12.90;5.30;;;6.90;99.90;;;;;;4953682;29;20039;-55
2022/01/18 12:59:04;;;;;;;16.30;5.13;;;6.90;99.90;;;;;;4953890;29;20039;-52
2022/01/18 13:01:31;;;;;;;16.25;5.85;;;6.90;99.90;;;;;;4963112;28;20046;-52
2022/01/18 13:03:57;;;;;;;15.13;5.15;;;6.90;99.90;;;;;;4972787;28;20042;-52
2022/01/18 13:06:26;;;;;;;16.00;4.78;;;6.90;99.90;;;;;;4939886;28;20039;-52
2022/01/18 13:09:00;;;;;;;19.55;5.55;;;7.00;99.90;;;;;;4952149;28;20043;-53
2022/01/18 13:11:26;;;;;;;14.95;5.70;;;6.90;99.90;;;;;;4931022;28;20047;-53
2022/01/18 13:14:01;;;;;;;17.27;6.03;;;6.90;99.90;;;;;;4931674;28;20051;-52
2022/01/18 13:27:34;;;;;;;16.13;5.50;;;7.00;99.90;;;;;;4957590;28;20050;-52
2022/01/18 13:30:14;;;;;;;16.17;5.43;;;7.10;99.90;;;;;;4955606;28;20078;-53
2022/01/18 13:32:40;;;;;;;19.35;5.93;;;7.00;99.90;;;;;;4953344;28;20043;-52
2022/01/18 13:35:07;;;;;;;16.95;5.82;;;7.00;99.90;;;;;;4953986;28;20047;-54
2022/01/18 13:37:34;;;;;;;16.60;5.80;;;7.00;99.90;;;;;;4963043;28;20035;-52
2022/01/18 13:40:09;;;;;;;14.32;5.72;;;7.00;99.90;;;;;;4964915;28;20515;-52
2022/01/18 13:42:45;;;;;;;15.25;6.25;;;7.00;99.90;;;;;;4963312;28;20071;-52
2022/01/18 13:45:25;;;;;;;17.75;7.40;;;7.10;99.90;;;;;;4957473;28;20046;-53
2022/01/18 13:48:06;;;;;;;22.38;7.65;;;7.10;99.90;;;;;;4953764;28;20035;-52
2022/01/18 13:50:55;;;;;;;22.15;7.55;;;7.10;99.90;;;;;;4953350;28;20042;-53
2022/01/18 13:53:28;;;;;;;15.68;6.82;;;7.10;99.90;;;;;;4953134;28;20036;-52
2022/01/18 13:56:03;;;;;;;25.25;7.65;;;7.10;99.90;;;;;;4961125;28;20149;-55
2022/01/18 13:58:39;;;;;;;17.85;7.20;;;7.10;99.90;;;;;;4970804;28;20081;-54
2022/01/18 14:01:17;;;;;;;18.40;7.15;;;7.10;99.90;;;;;;4970872;28;20047;-54
2022/01/18 14:03:46;;;;;;;19.92;6.82;;;7.00;99.90;;;;;;4964907;28;20038;-55
2022/01/18 14:06:15;;;;;;;20.90;6.90;;;7.00;99.90;;;;;;4939122;28;20042;-55
2022/01/18 14:08:49;;;;;;;23.98;7.88;;;7.10;99.90;;;;;;4937119;28;20046;-52
2022/01/18 14:11:23;;;;;;;21.13;6.85;;;7.10;99.90;;;;;;4938082;28;20039;-53
2022/01/18 14:13:50;;;;;;;18.40;7.30;;;7.10;99.90;;;;;;4948552;28;20043;-50
2022/01/18 14:16:26;;;;;;;17.23;7.22;;;7.10;99.90;;;;;;4961530;28;20110;-50
2022/01/18 14:18:53;;;;;;;27.55;8.05;;;7.10;99.90;;;;;;4947082;28;20040;-50
2022/01/18 14:21:30;;;;;;;19.05;7.20;;;7.10;99.90;;;;;;4962309;28;20043;-50
2022/01/18 14:24:16;;;;;;;21.15;7.95;;;7.10;99.90;;;;;;4960319;28;20061;-50
2022/01/18 14:26:51;;;;;;;20.88;7.72;;;7.10;99.90;;;;;;4962391;28;20057;-50
2022/01/18 14:29:17;;;;;;;22.33;7.57;;;7.10;99.90;;;;;;4957535;28;20075;-50